Terminal Aerodrome Forecast
Issued by NWS

Home | Current Version | Previous Version | Text Only | Print | Product List | Glossary On
Versions: 1 2 3 4 5 6 7 8 9 10 11 12 13 14 15 16 17 18
000
FTUS45 KABQ 201700
TAFAEG
TAF
KAEG 201729Z 2018/2118 18005KT P6SM FEW040
     FM201900 30015G25KT P6SM SCT100
     FM202200 30015G25KT P6SM VCSH BKN100
     FM210200 33005KT P6SM SCT100=

USA.gov is the U.S. government's official web portal to all federal, state and local government web resources and services.